createdAt,value
2022-09-05T00:02:49.022Z,97941.44
2022-09-05T00:05:32.641Z,97943.25
2022-09-05T00:08:08.456Z,97942.41
2022-09-05T00:11:16.832Z,97937.03
2022-09-05T00:13:32.704Z,97935.28
2022-09-05T00:16:06.491Z,97940.66
2022-09-05T00:24:23.269Z,97936.16
2022-09-05T00:24:26.770Z,97944.22
2022-09-05T00:25:01.039Z,97946.03
2022-09-05T00:27:28.476Z,97939.78
2022-09-05T00:31:07.269Z,97937.09
2022-09-05T00:33:16.960Z,97949.69
2022-09-05T00:35:53.847Z,97942.47
2022-09-05T00:38:23.614Z,97945.25
2022-09-05T00:41:05.173Z,97942.56
2022-09-05T00:43:34.604Z,97945.34
2022-09-05T00:46:04.203Z,97941.69
2022-09-05T00:48:36.599Z,97942.56
2022-09-05T00:51:14.157Z,97945.25
2022-09-05T00:53:47.953Z,97947.06
2022-09-05T00:56:34.816Z,97946.22
2022-09-05T00:59:23.353Z,97940.84
2022-09-05T01:01:54.770Z,97945.34
2022-09-05T01:04:32.345Z,97945.34
2022-09-05T01:07:16.856Z,97944.47
2022-09-05T01:09:48.415Z,97941.78
2022-09-05T01:12:26.943Z,97945.34
2022-09-05T01:15:04.898Z,97945.34
2022-09-05T01:17:39.647Z,97945.44
2022-09-05T01:20:38.106Z,97944.56
2022-09-05T01:23:47.714Z,97950.06
2022-09-05T01:26:41.387Z,97950.88
2022-09-05T01:29:19.363Z,97950.88
2022-09-05T01:31:58.091Z,97949.19
2022-09-05T01:34:31.776Z,97950.13
2022-09-05T01:37:03.768Z,97952.81
2022-09-05T01:40:12.073Z,97950.13
2022-09-05T01:42:32.548Z,97947.41
2022-09-05T01:45:03.664Z,97943.03
2022-09-05T01:47:41.176Z,97942.03
2022-09-05T01:50:18.255Z,97944.75
2022-09-05T01:52:59.231Z,97948.41
2022-09-05T01:56:04.214Z,97956.47
2022-09-05T01:58:29.093Z,97955.59
2022-09-05T02:01:25.581Z,97952.03
2022-09-05T02:03:53.743Z,97952.91
2022-09-05T02:06:40.185Z,97953.88
2022-09-05T02:09:22.515Z,97944.94
2022-09-05T02:11:53.174Z,97952.03
2022-09-05T02:14:34.425Z,97946.75
2022-09-05T02:17:28.575Z,97944.94
2022-09-05T02:20:09.485Z,97947.63
2022-09-05T02:22:43.360Z,97945.88
2022-09-05T02:25:40.281Z,97936.88
2022-09-05T02:28:07.043Z,97936.09
2022-09-05T02:30:37.027Z,97933.41
2022-09-05T02:33:26.505Z,97931.59
2022-09-05T02:35:57.049Z,97934.28
2022-09-05T02:40:41.404Z,97938.78
2022-09-05T02:45:08.516Z,97935.13
2022-09-05T02:45:14.648Z,97933.41
2022-09-05T02:47:01.430Z,97933.41
2022-09-05T02:52:08.930Z,97928.97
2022-09-05T02:57:29.555Z,97933.50
2022-09-05T02:57:32.960Z,97937.03
2022-09-05T02:58:24.474Z,97929.94
2022-09-05T03:00:55.693Z,97927.25
2022-09-05T03:03:28.653Z,97930.88
2022-09-05T03:06:01.124Z,97928.19
2022-09-05T03:08:41.031Z,97931.84
2022-09-05T03:11:42.888Z,97931.84
2022-09-05T03:14:50.613Z,97929.16
2022-09-05T03:17:53.520Z,97930.09
2022-09-05T03:21:09.953Z,97926.56
2022-09-05T03:24:06.757Z,97925.69
2022-09-05T03:27:02.911Z,97930.19
2022-09-05T03:29:58.606Z,97917.63
2022-09-05T03:33:03.211Z,97923.00
2022-09-05T03:36:19.022Z,97912.34
2022-09-05T03:39:09.335Z,97908.78
2022-09-05T03:41:45.555Z,97914.16
2022-09-05T03:44:22.178Z,97906.97
2022-09-05T03:47:04.796Z,97907.03
2022-09-05T03:51:39.427Z,97906.09
2022-09-05T03:57:14.288Z,97896.28
2022-09-05T03:57:16.806Z,97908.78
2022-09-05T03:59:00.060Z,97903.50
2022-09-05T04:03:32.939Z,97907.03
2022-09-05T04:08:23.746Z,97906.19
2022-09-05T04:08:27.923Z,97908.00
2022-09-05T04:10:10.652Z,97902.63
2022-09-05T04:12:50.959Z,97914.25
2022-09-05T04:15:29.590Z,97910.69
2022-09-05T04:18:03.898Z,97916.06
2022-09-05T04:20:40.449Z,97918.75
2022-09-05T04:23:24.970Z,97915.19
2022-09-05T04:26:12.007Z,97923.25
2022-09-05T04:28:53.374Z,97925.06
2022-09-05T04:31:27.812Z,97918.84
2022-09-05T04:34:02.847Z,97933.13
2022-09-05T04:36:33.125Z,97928.63
2022-09-05T04:39:09.723Z,97934.97
2022-09-05T04:41:41.100Z,97930.44
2022-09-05T04:44:13.031Z,97936.69
2022-09-05T04:46:48.811Z,97943.88
2022-09-05T04:49:18.255Z,97942.94
2022-09-05T04:52:04.351Z,97946.56
2022-09-05T04:54:36.586Z,97948.41
2022-09-05T04:57:14.228Z,97938.59
2022-09-05T05:04:02.353Z,97947.53
2022-09-05T05:06:08.227Z,97934.19
2022-09-05T05:06:23.757Z,97944.84
2022-09-05T05:08:17.724Z,97937.72
2022-09-05T05:15:35.260Z,97936.88
2022-09-05T05:18:11.816Z,97926.13
2022-09-05T05:18:13.923Z,97929.66
2022-09-05T05:19:40.795Z,97942.25
2022-09-05T05:22:14.996Z,97953.84
2022-09-05T05:24:44.684Z,97948.47
2022-09-05T05:27:17.531Z,97952.91
2022-09-05T05:29:48.712Z,97948.47
2022-09-05T05:32:44.996Z,97959.22
2022-09-05T05:35:14.618Z,97959.22
2022-09-05T05:37:44.043Z,97954.72
2022-09-05T05:40:14.403Z,97955.59
2022-09-05T05:42:42.793Z,97946.66
2022-09-05T05:45:18.167Z,97943.09
2022-09-05T05:47:49.055Z,97948.41
2022-09-05T05:50:26.906Z,97952.81
2022-09-05T05:53:11.515Z,97951.94
2022-09-05T05:56:12.751Z,97951.00
2022-09-05T05:59:09.521Z,97943.81
2022-09-05T06:02:05.505Z,97948.31
2022-09-05T06:05:16.080Z,97945.97
2022-09-05T06:10:35.402Z,97946.41
2022-09-05T06:14:58.129Z,97939.50
2022-09-05T06:15:08.827Z,97932.56
2022-09-05T06:17:55.985Z,97943.50
2022-09-05T06:22:10.393Z,97939.16
2022-09-05T06:24:13.209Z,97946.34
2022-09-05T06:27:16.926Z,97936.56
2022-09-05T06:29:51.341Z,97942.03
2022-09-05T06:32:31.187Z,97939.34
2022-09-05T06:35:25.934Z,97949.91
2022-09-05T06:38:02.041Z,97953.28
2022-09-05T06:40:34.491Z,97947.75
2022-09-05T06:43:18.875Z,97948.78
2022-09-05T06:45:58.935Z,97944.75
2022-09-05T06:48:45.858Z,97956.63
2022-09-05T06:51:45.002Z,97949.69
2022-09-05T06:54:59.503Z,97949.88
2022-09-05T06:57:53.527Z,97944.66
2022-09-05T07:00:23.756Z,97949.19
2022-09-05T07:03:13.596Z,97950.22
2022-09-05T07:05:45.320Z,97947.63
2022-09-05T07:08:36.419Z,97941.38
2022-09-05T07:11:15.860Z,97944.16
2022-09-05T07:13:54.691Z,97946.88
2022-09-05T07:16:37.140Z,97950.44
2022-09-05T07:19:14.324Z,97954.00
2022-09-05T07:21:44.612Z,97950.44
2022-09-05T07:24:22.108Z,97953.22
2022-09-05T07:27:09.012Z,97956.78
2022-09-05T07:29:53.491Z,97956.84
2022-09-05T07:32:30.515Z,97954.25
2022-09-05T07:34:58.840Z,97948.88
2022-09-05T07:37:27.948Z,97953.38
2022-09-05T07:39:57.470Z,97949.75
2022-09-05T07:42:32.545Z,97950.44
2022-09-05T07:45:06.464Z,97943.28
2022-09-05T07:47:35.228Z,97945.00
2022-09-05T07:51:17.307Z,97941.47
2022-09-05T07:56:50.434Z,97940.69
2022-09-05T07:56:52.991Z,97943.41
2022-09-05T07:58:41.428Z,97946.03
2022-09-05T08:01:12.718Z,97945.16
2022-09-05T08:03:41.003Z,97949.53
2022-09-05T08:06:10.762Z,97946.75
2022-09-05T08:09:05.647Z,97951.09
2022-09-05T08:11:37.181Z,97946.50
2022-09-05T08:14:41.771Z,97946.41
2022-09-05T08:16:55.740Z,97941.81
2022-09-05T08:19:40.644Z,97942.69
2022-09-05T08:22:09.220Z,97936.34
2022-09-05T08:24:39.664Z,97936.34
2022-09-05T08:27:16.192Z,97931.88
2022-09-05T08:29:46.149Z,97929.09
2022-09-05T08:32:16.841Z,97929.09
2022-09-05T08:34:46.329Z,97926.31
2022-09-05T08:37:17.839Z,97934.31
2022-09-05T08:39:51.163Z,97933.34
2022-09-05T08:42:40.450Z,97936.91
2022-09-05T08:46:43.162Z,97931.53
2022-09-05T08:48:15.219Z,97930.56
2022-09-05T08:51:09.047Z,97935.00
2022-09-05T08:53:48.861Z,97934.03
2022-09-05T08:56:20.947Z,97928.59
2022-09-05T08:59:27.896Z,97919.56
2022-09-05T09:02:46.185Z,97917.84
2022-09-05T09:05:02.498Z,97920.44
2022-09-05T09:07:50.865Z,97920.44
2022-09-05T09:10:32.773Z,97919.47
2022-09-05T09:13:11.764Z,97922.00
2022-09-05T09:15:40.413Z,97916.53
2022-09-05T09:18:14.252Z,97922.69
2022-09-05T09:20:49.345Z,97919.06
2022-09-05T09:23:29.047Z,97914.47
2022-09-05T09:26:06.548Z,97915.25
2022-09-05T09:28:50.235Z,97912.47
2022-09-05T09:31:24.684Z,97911.50
2022-09-05T09:33:57.818Z,97908.69
2022-09-05T09:37:03.752Z,97905.81
2022-09-05T09:39:38.268Z,97917.28
2022-09-05T09:42:34.130Z,97912.69
2022-09-05T09:45:29.694Z,97908.94
2022-09-05T09:48:19.286Z,97903.50
2022-09-05T09:51:06.293Z,97901.66
2022-09-05T09:53:44.508Z,97889.88
2022-09-05T09:56:39.064Z,97893.44
2022-09-05T09:59:29.543Z,97892.47
2022-09-05T10:03:49.971Z,97883.47
2022-09-05T10:10:39.331Z,97888.66
2022-09-05T10:10:51.763Z,97881.38
2022-09-05T10:15:23.730Z,97880.53
2022-09-05T10:18:39.775Z,97885.03
2022-09-05T10:21:35.513Z,97888.59
2022-09-05T10:24:25.858Z,97885.81
2022-09-05T10:27:13.159Z,97887.53
2022-09-05T10:29:46.910Z,97890.22
2022-09-05T10:35:10.779Z,97880.22
2022-09-05T10:35:22.460Z,97886.38
2022-09-05T10:37:55.365Z,97887.25
2022-09-05T10:40:26.956Z,97888.03
2022-09-05T10:43:00.916Z,97881.72
2022-09-05T10:45:38.763Z,97882.56
2022-09-05T10:48:13.737Z,97875.28
2022-09-05T10:50:44.516Z,97873.47
2022-09-05T10:53:39.250Z,97866.19
2022-09-05T10:56:14.595Z,97868.75
2022-09-05T10:59:54.092Z,97867.81
2022-09-05T11:02:26.863Z,97860.63
2022-09-05T11:04:49.772Z,97863.22
2022-09-05T11:07:29.345Z,97862.25
2022-09-05T11:10:12.195Z,97858.63
2022-09-05T11:13:10.916Z,97857.59
2022-09-05T11:16:03.853Z,97856.50
2022-09-05T11:18:55.693Z,97858.25
2022-09-05T11:21:29.063Z,97858.16
2022-09-05T11:23:58.038Z,97851.91
2022-09-05T11:26:32.456Z,97859.03
2022-09-05T11:29:04.363Z,97855.47
2022-09-05T11:31:44.790Z,97859.03
2022-09-05T11:40:06.721Z,97858.16
2022-09-05T11:40:10.063Z,97856.34
2022-09-05T11:41:05.174Z,97861.72
2022-09-05T11:44:24.878Z,97847.31
2022-09-05T11:47:28.031Z,97847.31
2022-09-05T11:50:09.121Z,97846.38
2022-09-05T11:53:06.694Z,97845.38
2022-09-05T11:55:53.308Z,97847.13
2022-09-05T11:58:45.142Z,97833.59
2022-09-05T12:01:41.568Z,97837.16
2022-09-05T12:04:42.075Z,97833.50
2022-09-05T12:07:31.501Z,97829.00
2022-09-05T12:10:47.779Z,97830.63
2022-09-05T12:13:37.270Z,97826.97
2022-09-05T12:16:10.193Z,97828.72
2022-09-05T12:18:43.884Z,97825.94
2022-09-05T12:21:24.579Z,97817.75
2022-09-05T12:24:36.830Z,97816.88
2022-09-05T12:27:40.716Z,97819.50
2022-09-05T12:29:48.702Z,97823.91
2022-09-05T12:33:52.408Z,97815.84
2022-09-05T12:36:06.058Z,97816.66
2022-09-05T12:40:23.694Z,97810.38
2022-09-05T12:41:44.277Z,97813.06
2022-09-05T12:44:40.185Z,97811.28
2022-09-05T12:46:38.799Z,97811.28
2022-09-05T12:49:10.591Z,97813.03
2022-09-05T12:51:46.097Z,97810.34
2022-09-05T12:54:33.796Z,97810.34
2022-09-05T13:00:24.212Z,97803.09
2022-09-05T13:03:07.158Z,97795.91
2022-09-05T13:03:09.053Z,97798.69
2022-09-05T13:05:47.472Z,97796.00
2022-09-05T13:08:21.693Z,97790.63
2022-09-05T13:14:49.207Z,97789.59
2022-09-05T13:14:54.648Z,97785.16
2022-09-05T13:16:35.041Z,97783.34
2022-09-05T13:19:07.796Z,97782.47
2022-09-05T13:21:37.833Z,97778.81
2022-09-05T13:24:10.308Z,97778.81
2022-09-05T13:26:41.046Z,97777.84
2022-09-05T13:29:15.347Z,97773.44
2022-09-05T13:38:06.458Z,97768.91
2022-09-05T13:38:17.741Z,97765.28
2022-09-05T13:38:42.011Z,97773.34
2022-09-05T13:40:38.534Z,97768.84
2022-09-05T13:43:10.151Z,97762.47
2022-09-05T13:45:57.717Z,97765.16
2022-09-05T13:51:37.353Z,97761.44
2022-09-05T13:54:41.325Z,97758.63
2022-09-05T13:57:31.839Z,97763.06
2022-09-05T14:00:28.980Z,97761.34
2022-09-05T14:03:37.644Z,97762.22
2022-09-05T14:06:45.860Z,97761.16
2022-09-05T14:09:41.618Z,97755.78
2022-09-05T14:12:13.071Z,97751.22
2022-09-05T14:17:54.229Z,97751.22
2022-09-05T14:20:42.909Z,97743.16
2022-09-05T14:23:15.239Z,97739.63
2022-09-05T14:25:44.576Z,97745.00
2022-09-05T14:28:14.732Z,97742.31
2022-09-05T14:34:36.925Z,97737.78
2022-09-05T14:37:42.763Z,97736.06
2022-09-05T14:37:50.570Z,97739.63
2022-09-05T14:39:45.810Z,97734.25
2022-09-05T14:42:29.135Z,97745.00
2022-09-05T14:45:22.868Z,97739.63
2022-09-05T14:48:29.103Z,97737.78
2022-09-05T14:51:14.626Z,97736.94
2022-09-05T14:53:59.985Z,97736.06
2022-09-05T15:02:41.567Z,97738.66
2022-09-05T15:02:51.668Z,97732.41
2022-09-05T15:02:57.272Z,97736.06
2022-09-05T15:05:21.183Z,97728.88
2022-09-05T15:07:50.026Z,97733.28
2022-09-05T15:12:17.767Z,97719.94
2022-09-05T15:13:25.861Z,97713.56
2022-09-05T15:16:02.518Z,97713.56
2022-09-05T15:18:32.483Z,97712.75
2022-09-05T15:21:33.302Z,97709.94
2022-09-05T15:24:13.724Z,97708.19
2022-09-05T15:26:52.564Z,97717.13
2022-09-05T15:29:25.221Z,97714.44
2022-09-05T15:32:09.190Z,97716.19
2022-09-05T15:34:38.406Z,97715.31
2022-09-05T15:37:23.351Z,97712.63
2022-09-05T15:40:02.080Z,97711.66
2022-09-05T15:42:32.307Z,97712.63
2022-09-05T15:45:11.066Z,97709.94
2022-09-05T15:47:40.584Z,97711.66
2022-09-05T15:50:21.923Z,97708.19
2022-09-05T15:52:55.441Z,97711.66
2022-09-05T15:55:25.154Z,97708.13
2022-09-05T15:57:55.267Z,97706.28
2022-09-05T16:00:42.026Z,97700.06
2022-09-05T16:04:42.210Z,97704.56
2022-09-05T16:10:29.344Z,97694.66
2022-09-05T16:10:48.666Z,97686.59
2022-09-05T16:12:14.494Z,97683.03
2022-09-05T16:14:45.236Z,97694.66
2022-09-05T16:23:13.153Z,97679.38
2022-09-05T16:23:32.498Z,97689.28
2022-09-05T16:23:39.420Z,97693.81
2022-09-05T16:26:07.840Z,97693.81
2022-09-05T16:28:39.471Z,97687.53
2022-09-05T16:31:13.785Z,97690.25
2022-09-05T16:33:43.403Z,97701.75
2022-09-05T16:36:16.246Z,97693.69
2022-09-05T16:38:48.879Z,97692.75
2022-09-05T16:41:24.067Z,97690.13
2022-09-05T16:43:54.721Z,97704.34
2022-09-05T16:46:23.827Z,97688.31
2022-09-05T16:48:54.889Z,97686.50
2022-09-05T16:51:35.561Z,97689.19
2022-09-05T16:54:07.680Z,97692.75
2022-09-05T16:56:41.162Z,97692.75
2022-09-05T16:59:10.903Z,97695.44
2022-09-05T17:01:54.934Z,97691.88
2022-09-05T17:05:04.266Z,97685.63
2022-09-05T17:07:56.480Z,97693.59
2022-09-05T17:10:26.812Z,97697.25
2022-09-05T17:12:55.009Z,97690.13
2022-09-05T17:15:26.165Z,97691.00
2022-09-05T17:18:19.488Z,97691.00
2022-09-05T17:20:49.401Z,97691.97
2022-09-05T17:29:15.469Z,97692.81
2022-09-05T17:29:37.959Z,97682.16
2022-09-05T17:29:39.206Z,97688.41
2022-09-05T17:32:00.562Z,97685.72
2022-09-05T17:34:49.793Z,97683.97
2022-09-05T17:37:47.473Z,97683.97
2022-09-05T17:40:42.797Z,97684.97
2022-09-05T17:43:16.555Z,97692.16
2022-09-05T17:46:13.232Z,97690.44
2022-09-05T17:49:19.631Z,97686.78
2022-09-05T17:52:18.353Z,97689.47
2022-09-05T17:54:49.570Z,97692.16
2022-09-05T17:57:39.342Z,97694.84
2022-09-05T18:00:44.791Z,97694.84
2022-09-05T18:03:13.085Z,97693.03
2022-09-05T18:06:03.852Z,97700.22
2022-09-05T18:11:44.909Z,97702.91
2022-09-05T18:14:46.882Z,97711.00
2022-09-05T18:18:02.796Z,97716.38
2022-09-05T18:20:35.635Z,97708.41
2022-09-05T18:23:37.162Z,97718.28
2022-09-05T18:26:17.852Z,97722.81
2022-09-05T18:28:56.345Z,97717.41
2022-09-05T18:31:59.167Z,97725.59
2022-09-05T18:34:46.690Z,97730.97
2022-09-05T18:37:59.505Z,97736.34
2022-09-05T18:40:53.991Z,97741.72
2022-09-05T18:43:28.035Z,97740.03
2022-09-05T18:46:01.120Z,97740.03
2022-09-05T18:48:45.690Z,97743.66
2022-09-05T18:51:35.663Z,97757.09
2022-09-05T18:54:09.643Z,97759.78
2022-09-05T18:57:27.010Z,97764.28
2022-09-05T18:59:41.608Z,97766.16
2022-09-05T19:02:41.123Z,97762.59
2022-09-05T19:05:15.768Z,97767.09
2022-09-05T19:07:48.295Z,97760.84
2022-09-05T19:10:35.770Z,97767.97
2022-09-05T19:13:10.552Z,97773.44
2022-09-05T19:15:48.158Z,97776.13
2022-09-05T19:18:37.103Z,97780.63
2022-09-05T19:21:12.109Z,97771.69
2022-09-05T19:23:44.555Z,97771.69
2022-09-05T19:26:12.864Z,97776.19
2022-09-05T19:36:46.106Z,97769.13
2022-09-05T19:36:52.443Z,97764.59
2022-09-05T19:37:06.989Z,97774.50
2022-09-05T19:37:24.014Z,97760.25
2022-09-05T19:42:44.908Z,97761.13
2022-09-05T19:47:31.703Z,97755.81
2022-09-05T19:47:49.137Z,97751.31
2022-09-05T19:48:25.463Z,97755.91
2022-09-05T19:50:56.556Z,97750.53
2022-09-05T19:53:25.805Z,97748.72
2022-09-05T19:55:54.560Z,97761.28
2022-09-05T19:58:23.403Z,97755.91
2022-09-05T20:01:02.351Z,97746.13
2022-09-05T20:03:38.845Z,97757.72
2022-09-05T20:06:28.988Z,97756.88
2022-09-05T20:09:09.106Z,97764.06
2022-09-05T20:11:45.911Z,97760.50
2022-09-05T20:14:23.128Z,97760.50
2022-09-05T20:16:52.273Z,97751.56
2022-09-05T20:19:25.520Z,97750.72
2022-09-05T20:22:11.477Z,97742.66
2022-09-05T20:24:49.349Z,97743.63
2022-09-05T20:27:17.594Z,97755.25
2022-09-05T20:29:54.744Z,97754.38
2022-09-05T20:32:27.823Z,97740.91
2022-09-05T20:37:00.880Z,97747.28
2022-09-05T20:43:17.348Z,97734.78
2022-09-05T20:43:20.807Z,97743.72
2022-09-05T20:43:58.039Z,97734.88
2022-09-05T20:48:11.237Z,97731.22
2022-09-05T20:54:12.674Z,97733.06
2022-09-05T20:54:23.206Z,97734.00
2022-09-05T20:55:39.054Z,97734.88
2022-09-05T20:57:50.844Z,97734.00
2022-09-05T21:00:21.447Z,97734.97
2022-09-05T21:02:50.783Z,97742.06
2022-09-05T21:05:25.496Z,97738.50
2022-09-05T21:08:06.996Z,97741.19
2022-09-05T21:10:55.020Z,97741.31
2022-09-05T21:13:24.605Z,97740.47
2022-09-05T21:15:54.237Z,97730.53
2022-09-05T21:18:26.126Z,97729.69
2022-09-05T21:21:03.353Z,97728.84
2022-09-05T21:23:43.000Z,97729.78
2022-09-05T21:26:24.271Z,97739.59
2022-09-05T21:29:04.208Z,97732.47
2022-09-05T21:31:32.655Z,97723.56
2022-09-05T21:34:03.126Z,97724.41
2022-09-05T21:36:33.697Z,97731.53
2022-09-05T21:39:02.396Z,97727.19
2022-09-05T21:41:32.264Z,97728.94
2022-09-05T21:47:34.799Z,97722.69
2022-09-05T21:47:48.685Z,97716.44
2022-09-05T21:49:41.303Z,97716.44
2022-09-05T21:52:09.447Z,97721.81
2022-09-05T21:59:08.216Z,97728.06
2022-09-05T21:59:28.690Z,97721.91
2022-09-05T22:00:21.407Z,97722.78
2022-09-05T22:02:49.820Z,97722.78
2022-09-05T22:05:20.247Z,97716.53
2022-09-05T22:07:48.880Z,97713.84
2022-09-05T22:10:17.024Z,97713.94
2022-09-05T22:12:48.820Z,97714.78
2022-09-05T22:15:27.434Z,97719.22
2022-09-05T22:18:16.766Z,97712.97
2022-09-05T22:20:46.156Z,97713.06
2022-09-05T22:23:21.633Z,97713.84
2022-09-05T22:25:49.851Z,97710.38
2022-09-05T22:28:20.919Z,97707.69
2022-09-05T22:30:55.599Z,97699.63
2022-09-05T22:33:25.107Z,97705.00
2022-09-05T22:35:53.303Z,97705.00
2022-09-05T22:38:21.563Z,97700.50
2022-09-05T22:40:49.810Z,97694.25
2022-09-05T22:43:19.377Z,97702.31
2022-09-05T22:45:48.563Z,97698.75
2022-09-05T22:48:16.669Z,97702.31
2022-09-05T22:50:44.785Z,97696.06
2022-09-05T22:53:12.879Z,97702.31
2022-09-05T22:55:41.744Z,97700.56
2022-09-05T22:58:11.953Z,97697.88
2022-09-05T23:00:41.819Z,97688.00
2022-09-05T23:03:10.126Z,97688.97
2022-09-05T23:05:38.212Z,97685.41
2022-09-05T23:08:06.920Z,97688.97
2022-09-05T23:10:35.081Z,97685.41
2022-09-05T23:13:07.499Z,97682.72
2022-09-05T23:15:35.966Z,97682.72
2022-09-05T23:18:05.866Z,97683.69
2022-09-05T23:20:34.187Z,97681.00
2022-09-05T23:23:03.940Z,97671.09
2022-09-05T23:25:32.108Z,97673.78
2022-09-05T23:28:00.224Z,97678.31
2022-09-05T23:30:28.400Z,97670.22
2022-09-05T23:32:56.464Z,97663.16
2022-09-05T23:35:26.104Z,97670.22
2022-09-05T23:37:54.204Z,97663.16
2022-09-05T23:40:23.191Z,97655.09
2022-09-05T23:42:53.065Z,97666.72
2022-09-05T23:45:21.179Z,97660.47
2022-09-05T23:47:49.281Z,97657.78
2022-09-05T23:50:17.748Z,97664.97
2022-09-05T23:52:47.317Z,97657.78
2022-09-05T23:55:16.515Z,97661.41
2022-09-05T23:57:44.644Z,97656.91
